sensor_id;sensor_type;location;lat;lon;timestamp;pressure;altitude;pressure_sealevel;temperature;humidity
72157;BME280;60035;52.122;5.406;2022-08-02T00:00:09;102129.34;;;14.24;74.91
72157;BME280;60035;52.122;5.406;2022-08-02T00:02:37;102123.28;;;14.25;75.00
72157;BME280;60035;52.122;5.406;2022-08-02T00:05:04;102118.81;;;14.33;74.79
72157;BME280;60035;52.122;5.406;2022-08-02T00:07:31;102117.94;;;14.34;74.73
72157;BME280;60035;52.122;5.406;2022-08-02T00:10:06;102105.19;;;14.28;74.53
72157;BME280;60035;52.122;5.406;2022-08-02T00:12:33;102109.47;;;14.29;74.56
72157;BME280;60035;52.122;5.406;2022-08-02T00:14:59;102116.28;;;14.30;74.10
72157;BME280;60035;52.122;5.406;2022-08-02T00:17:26;102111.22;;;14.27;74.24
72157;BME280;60035;52.122;5.406;2022-08-02T00:19:52;102113.94;;;14.22;74.30
72157;BME280;60035;52.122;5.406;2022-08-02T00:22:20;102110.81;;;14.09;74.51
72157;BME280;60035;52.122;5.406;2022-08-02T00:24:46;102111.69;;;14.08;75.26
72157;BME280;60035;52.122;5.406;2022-08-02T00:27:13;102105.00;;;13.99;75.05
72157;BME280;60035;52.122;5.406;2022-08-02T00:29:40;102097.31;;;13.98;75.12
72157;BME280;60035;52.122;5.406;2022-08-02T00:32:18;102100.78;;;13.97;75.36
72157;BME280;60035;52.122;5.406;2022-08-02T00:34:45;102103.56;;;13.88;75.60
72157;BME280;60035;52.122;5.406;2022-08-02T00:37:12;102098.50;;;13.85;75.72
72157;BME280;60035;52.122;5.406;2022-08-02T00:39:38;102102.84;;;13.82;75.50
72157;BME280;60035;52.122;5.406;2022-08-02T00:42:05;102097.81;;;13.76;75.56
72157;BME280;60035;52.122;5.406;2022-08-02T00:44:32;102093.75;;;13.66;75.59
72157;BME280;60035;52.122;5.406;2022-08-02T00:46:58;102093.75;;;13.66;75.84
72157;BME280;60035;52.122;5.406;2022-08-02T00:49:25;102091.09;;;13.69;76.10
72157;BME280;60035;52.122;5.406;2022-08-02T00:51:52;102082.56;;;13.69;75.97
72157;BME280;60035;52.122;5.406;2022-08-02T00:54:19;102084.31;;;13.66;76.01
72157;BME280;60035;52.122;5.406;2022-08-02T00:56:46;102079.97;;;13.69;75.55
72157;BME280;60035;52.122;5.406;2022-08-02T00:59:16;102086.00;;;13.68;76.06
72157;BME280;60035;52.122;5.406;2022-08-02T01:01:44;102085.94;;;13.71;75.63
72157;BME280;60035;52.122;5.406;2022-08-02T01:04:26;102083.34;;;13.72;75.18
72157;BME280;60035;52.122;5.406;2022-08-02T01:07:02;102080.94;;;13.64;75.36
72157;BME280;60035;52.122;5.406;2022-08-02T01:09:43;102085.63;;;13.45;76.13
72157;BME280;60035;52.122;5.406;2022-08-02T01:12:10;102081.41;;;13.43;75.98
72157;BME280;60035;52.122;5.406;2022-08-02T01:14:44;102078.09;;;13.38;75.99
72157;BME280;60035;52.122;5.406;2022-08-02T01:17:19;102069.78;;;13.23;76.78
72157;BME280;60035;52.122;5.406;2022-08-02T01:20:17;102074.78;;;13.31;76.66
72157;BME280;60035;52.122;5.406;2022-08-02T01:23:08;102077.19;;;13.40;76.36
72157;BME280;60035;52.122;5.406;2022-08-02T01:26:01;102069.50;;;13.36;76.33
72157;BME280;60035;52.122;5.406;2022-08-02T01:33:37;102053.31;;;13.30;77.20
72157;BME280;60035;52.122;5.406;2022-08-02T01:36:08;102062.75;;;13.31;76.88
72157;BME280;60035;52.122;5.406;2022-08-02T01:38:46;102060.09;;;13.34;76.55
72157;BME280;60035;52.122;5.406;2022-08-02T01:41:17;102046.34;;;13.37;76.37
72157;BME280;60035;52.122;5.406;2022-08-02T01:43:47;102047.22;;;13.34;76.87
72157;BME280;60035;52.122;5.406;2022-08-02T01:46:15;102045.59;;;13.30;76.80
72157;BME280;60035;52.122;5.406;2022-08-02T01:48:44;102049.03;;;13.31;76.78
72157;BME280;60035;52.122;5.406;2022-08-02T01:51:14;102049.81;;;13.34;76.59
72157;BME280;60035;52.122;5.406;2022-08-02T01:53:44;102054.91;;;13.39;76.68
72157;BME280;60035;52.122;5.406;2022-08-02T01:56:15;102050.66;;;13.35;76.53
72157;BME280;60035;52.122;5.406;2022-08-02T01:58:44;102047.22;;;13.34;76.72
72157;BME280;60035;52.122;5.406;2022-08-02T02:01:13;102044.78;;;13.30;76.89
72157;BME280;60035;52.122;5.406;2022-08-02T02:03:44;102047.38;;;13.28;77.23
72157;BME280;60035;52.122;5.406;2022-08-02T02:06:13;102048.09;;;13.35;77.27
72157;BME280;60035;52.122;5.406;2022-08-02T02:08:42;102043.72;;;13.40;77.14
72157;BME280;60035;52.122;5.406;2022-08-02T02:11:09;102041.94;;;13.42;77.04
72157;BME280;60035;52.122;5.406;2022-08-02T02:13:57;102042.06;;;13.38;77.28
72157;BME280;60035;52.122;5.406;2022-08-02T02:16:25;102041.16;;;13.40;77.22
72157;BME280;60035;52.122;5.406;2022-08-02T02:18:53;102036.72;;;13.47;77.13
72157;BME280;60035;52.122;5.406;2022-08-02T02:21:20;102039.41;;;13.41;77.22
72157;BME280;60035;52.122;5.406;2022-08-02T02:23:47;102041.09;;;13.43;77.20
72157;BME280;60035;52.122;5.406;2022-08-02T02:26:17;102034.09;;;13.48;77.14
72157;BME280;60035;52.122;5.406;2022-08-02T02:28:58;102025.44;;;13.53;76.55
72157;BME280;60035;52.122;5.406;2022-08-02T02:31:28;102021.41;;;13.41;77.25
72157;BME280;60035;52.122;5.406;2022-08-02T02:34:00;102020.75;;;13.29;77.46
72157;BME280;60035;52.122;5.406;2022-08-02T02:36:32;102025.94;;;13.28;77.81
72157;BME280;60035;52.122;5.406;2022-08-02T02:39:02;102017.34;;;13.29;77.91
72157;BME280;60035;52.122;5.406;2022-08-02T02:41:38;102018.00;;;13.40;77.78
72157;BME280;60035;52.122;5.406;2022-08-02T02:44:08;102016.13;;;13.47;77.50
72157;BME280;60035;52.122;5.406;2022-08-02T02:46:39;102009.13;;;13.54;77.35
72157;BME280;60035;52.122;5.406;2022-08-02T02:49:07;102003.16;;;13.52;77.18
72157;BME280;60035;52.122;5.406;2022-08-02T02:51:39;102002.56;;;13.39;77.59
72157;BME280;60035;52.122;5.406;2022-08-02T02:54:07;102009.38;;;13.41;77.72
72157;BME280;60035;52.122;5.406;2022-08-02T02:56:56;102008.25;;;13.53;77.47
72157;BME280;60035;52.122;5.406;2022-08-02T02:59:23;102008.91;;;13.63;77.72
72157;BME280;60035;52.122;5.406;2022-08-02T03:01:51;102008.03;;;13.62;77.50
72157;BME280;60035;52.122;5.406;2022-08-02T03:04:24;102014.97;;;13.60;77.36
72157;BME280;60035;52.122;5.406;2022-08-02T03:06:53;102009.75;;;13.63;77.41
72157;BME280;60035;52.122;5.406;2022-08-02T03:09:20;102015.53;;;13.72;77.34
72157;BME280;60035;52.122;5.406;2022-08-02T03:11:47;102015.31;;;13.82;77.07
72157;BME280;60035;52.122;5.406;2022-08-02T03:14:14;102019.31;;;13.93;76.91
72157;BME280;60035;52.122;5.406;2022-08-02T03:16:45;102015.66;;;14.03;76.43
72157;BME280;60035;52.122;5.406;2022-08-02T03:19:12;102015.50;;;14.09;76.01
72157;BME280;60035;52.122;5.406;2022-08-02T03:21:40;102006.97;;;14.07;76.19
72157;BME280;60035;52.122;5.406;2022-08-02T03:24:07;102013.03;;;14.05;76.41
72157;BME280;60035;52.122;5.406;2022-08-02T03:29:41;102003.31;;;14.16;76.17
72157;BME280;60035;52.122;5.406;2022-08-02T03:32:08;101986.06;;;14.18;75.80
72157;BME280;60035;52.122;5.406;2022-08-02T03:34:35;101989.50;;;14.19;76.06
72157;BME280;60035;52.122;5.406;2022-08-02T03:37:03;101988.59;;;14.21;76.02
72157;BME280;60035;52.122;5.406;2022-08-02T03:39:31;101986.72;;;14.26;75.88
72157;BME280;60035;52.122;5.406;2022-08-02T03:41:57;101981.44;;;14.31;75.74
72157;BME280;60035;52.122;5.406;2022-08-02T03:44:24;101971.91;;;14.35;75.87
72157;BME280;60035;52.122;5.406;2022-08-02T03:46:55;101969.19;;;14.39;75.50
72157;BME280;60035;52.122;5.406;2022-08-02T03:49:22;101967.38;;;14.43;75.58
72157;BME280;60035;52.122;5.406;2022-08-02T03:51:49;101967.28;;;14.47;75.12
72157;BME280;60035;52.122;5.406;2022-08-02T03:54:16;101965.47;;;14.49;74.83
72157;BME280;60035;52.122;5.406;2022-08-02T03:56:54;101955.13;;;14.51;74.57
72157;BME280;60035;52.122;5.406;2022-08-02T03:59:21;101957.69;;;14.53;74.98
72157;BME280;60035;52.122;5.406;2022-08-02T04:01:49;101959.38;;;14.52;75.49
72157;BME280;60035;52.122;5.406;2022-08-02T04:04:16;101963.63;;;14.55;75.36
72157;BME280;60035;52.122;5.406;2022-08-02T04:06:45;101970.50;;;14.54;75.49
72157;BME280;60035;52.122;5.406;2022-08-02T04:09:12;101973.88;;;14.56;75.57
72157;BME280;60035;52.122;5.406;2022-08-02T04:11:38;101969.53;;;14.58;75.83
72157;BME280;60035;52.122;5.406;2022-08-02T04:14:07;101961.00;;;14.56;76.02
72157;BME280;60035;52.122;5.406;2022-08-02T04:16:39;101967.13;;;14.52;75.82
72157;BME280;60035;52.122;5.406;2022-08-02T04:19:08;101969.69;;;14.52;76.24
72157;BME280;60035;52.122;5.406;2022-08-02T04:21:42;101967.16;;;14.50;75.89
72157;BME280;60035;52.122;5.406;2022-08-02T04:24:21;101963.56;;;14.56;76.07
72157;BME280;60035;52.122;5.406;2022-08-02T04:26:55;101972.06;;;14.60;75.74
72157;BME280;60035;52.122;5.406;2022-08-02T04:29:32;101962.56;;;14.62;75.68
72157;BME280;60035;52.122;5.406;2022-08-02T04:32:02;101962.56;;;14.62;75.47
72157;BME280;60035;52.122;5.406;2022-08-02T04:34:29;101966.19;;;14.55;75.38
72157;BME280;60035;52.122;5.406;2022-08-02T04:36:59;101972.28;;;14.52;75.81
72157;BME280;60035;52.122;5.406;2022-08-02T04:39:26;101974.75;;;14.55;75.66
72157;BME280;60035;52.122;5.406;2022-08-02T04:41:53;101974.81;;;14.54;76.00
72157;BME280;60035;52.122;5.406;2022-08-02T04:44:23;101973.97;;;14.53;76.06
72157;BME280;60035;52.122;5.406;2022-08-02T04:46:52;101976.59;;;14.52;75.98
72157;BME280;60035;52.122;5.406;2022-08-02T04:49:19;101965.41;;;14.53;75.85
72157;BME280;60035;52.122;5.406;2022-08-02T04:51:46;101971.34;;;14.55;75.99
72157;BME280;60035;52.122;5.406;2022-08-02T04:54:12;101973.22;;;14.49;76.44
72157;BME280;60035;52.122;5.406;2022-08-02T04:56:44;101969.19;;;14.39;76.83
72157;BME280;60035;52.122;5.406;2022-08-02T04:59:11;101960.72;;;14.36;76.97
72157;BME280;60035;52.122;5.406;2022-08-02T05:01:38;101957.22;;;14.37;77.32
72157;BME280;60035;52.122;5.406;2022-08-02T05:04:05;101947.94;;;14.31;77.49
72157;BME280;60035;52.122;5.406;2022-08-02T05:06:39;101944.44;;;14.33;77.80
72157;BME280;60035;52.122;5.406;2022-08-02T05:09:05;101951.25;;;14.36;77.39
72157;BME280;60035;52.122;5.406;2022-08-02T05:11:32;101952.16;;;14.33;77.75
72157;BME280;60035;52.122;5.406;2022-08-02T05:14:03;101937.28;;;14.45;77.53
72157;BME280;60035;52.122;5.406;2022-08-02T05:16:36;101941.41;;;14.50;77.40
72157;BME280;60035;52.122;5.406;2022-08-02T05:19:03;101942.13;;;14.56;77.41
72157;BME280;60035;52.122;5.406;2022-08-02T05:21:29;101942.72;;;14.65;77.37
72157;BME280;60035;52.122;5.406;2022-08-02T05:23:57;101935.47;;;14.78;76.74
72157;BME280;60035;52.122;5.406;2022-08-02T05:26:31;101937.66;;;14.92;76.18
72157;BME280;60035;52.122;5.406;2022-08-02T05:28:58;101935.53;;;15.05;75.78
72157;BME280;60035;52.122;5.406;2022-08-02T05:31:24;101939.50;;;15.15;75.35
72157;BME280;60035;52.122;5.406;2022-08-02T05:33:51;101949.59;;;15.23;74.88
72157;BME280;60035;52.122;5.406;2022-08-02T05:36:21;101946.78;;;15.31;74.26
72157;BME280;60035;52.122;5.406;2022-08-02T05:38:48;101950.75;;;15.41;73.88
72157;BME280;60035;52.122;5.406;2022-08-02T05:41:17;101950.53;;;15.47;73.46
72157;BME280;60035;52.122;5.406;2022-08-02T05:43:45;101951.06;;;15.59;73.41
72157;BME280;60035;52.122;5.406;2022-08-02T05:46:12;101948.13;;;15.70;73.32
72157;BME280;60035;52.122;5.406;2022-08-02T05:48:38;101951.06;;;15.86;72.90
72157;BME280;60035;52.122;5.406;2022-08-02T05:51:11;101959.28;;;15.97;72.62
72157;BME280;60035;52.122;5.406;2022-08-02T05:56:45;101958.22;;;16.28;72.35
72157;BME280;60035;52.122;5.406;2022-08-02T06:05:10;101953.31;;;16.68;71.39
72157;BME280;60035;52.122;5.406;2022-08-02T06:07:40;101947.25;;;16.69;70.83
72157;BME280;60035;52.122;5.406;2022-08-02T06:10:07;101944.53;;;16.72;70.84
72157;BME280;60035;52.122;5.406;2022-08-02T06:12:47;101944.03;;;16.86;70.53
72157;BME280;60035;52.122;5.406;2022-08-02T06:15:18;101931.66;;;16.94;70.59
72157;BME280;60035;52.122;5.406;2022-08-02T06:17:46;101931.97;;;17.08;70.14
72157;BME280;60035;52.122;5.406;2022-08-02T06:20:16;101940.13;;;17.20;69.83
72157;BME280;60035;52.122;5.406;2022-08-02T06:22:43;101931.03;;;17.31;69.70
72157;BME280;60035;52.122;5.406;2022-08-02T06:25:12;101918.75;;;17.37;69.79
72157;BME280;60035;52.122;5.406;2022-08-02T06:28:00;101915.78;;;17.46;69.69
72157;BME280;60035;52.122;5.406;2022-08-02T06:30:28;101919.75;;;17.55;69.31
72157;BME280;60035;52.122;5.406;2022-08-02T06:32:55;101932.25;;;17.65;69.35
72157;BME280;60035;52.122;5.406;2022-08-02T06:35:25;101941.31;;;17.76;69.27
72157;BME280;60035;52.122;5.406;2022-08-02T06:37:59;101937.22;;;17.91;69.34
72157;BME280;60035;52.122;5.406;2022-08-02T06:40:47;101936.72;;;18.03;69.05
72157;BME280;60035;52.122;5.406;2022-08-02T06:46:06;101930.59;;;18.25;68.44
72157;BME280;60035;52.122;5.406;2022-08-02T06:48:52;101921.50;;;18.35;68.25
72157;BME280;60035;52.122;5.406;2022-08-02T06:51:19;101921.84;;;18.46;68.00
72157;BME280;60035;52.122;5.406;2022-08-02T06:53:47;101917.31;;;18.52;67.66
72157;BME280;60035;52.122;5.406;2022-08-02T06:56:13;101915.19;;;18.60;67.54
72157;BME280;60035;52.122;5.406;2022-08-02T06:58:40;101905.16;;;18.71;67.69
72157;BME280;60035;52.122;5.406;2022-08-02T07:01:06;101903.03;;;18.79;67.58
72157;BME280;60035;52.122;5.406;2022-08-02T07:03:33;101902.56;;;18.90;67.40
72157;BME280;60035;52.122;5.406;2022-08-02T07:06:00;101901.28;;;18.99;67.24
72157;BME280;60035;52.122;5.406;2022-08-02T07:08:27;101893.97;;;19.07;67.03
72157;BME280;60035;52.122;5.406;2022-08-02T07:11:01;101898.72;;;19.17;66.75
72157;BME280;60035;52.122;5.406;2022-08-02T07:13:28;101896.50;;;19.26;66.31
72157;BME280;60035;52.122;5.406;2022-08-02T07:15:55;101893.50;;;19.34;66.73
72157;BME280;60035;52.122;5.406;2022-08-02T07:18:22;101897.34;;;19.44;66.58
72157;BME280;60035;52.122;5.406;2022-08-02T07:20:49;101893.66;;;19.48;66.08
72157;BME280;60035;52.122;5.406;2022-08-02T07:23:15;101890.00;;;19.53;66.10
72157;BME280;60035;52.122;5.406;2022-08-02T07:25:43;101902.28;;;19.67;66.08
72157;BME280;60035;52.122;5.406;2022-08-02T07:28:28;101887.00;;;19.78;65.48
72157;BME280;60035;52.122;5.406;2022-08-02T07:30:55;101892.41;;;19.91;65.66
72157;BME280;60035;52.122;5.406;2022-08-02T07:33:21;101894.47;;;20.02;65.33
72157;BME280;60035;52.122;5.406;2022-08-02T07:36:06;101896.03;;;20.04;65.03
72157;BME280;60035;52.122;5.406;2022-08-02T07:38:41;101888.25;;;20.04;65.17
72157;BME280;60035;52.122;5.406;2022-08-02T07:41:10;101887.31;;;20.05;65.86
72157;BME280;60035;52.122;5.406;2022-08-02T07:43:37;101889.44;;;20.14;65.83
72157;BME280;60035;52.122;5.406;2022-08-02T07:46:03;101880.13;;;20.26;65.89
72157;BME280;60035;52.122;5.406;2022-08-02T07:48:30;101876.03;;;20.38;65.24
72157;BME280;60035;52.122;5.406;2022-08-02T07:50:56;101881.66;;;20.46;64.93
72157;BME280;60035;52.122;5.406;2022-08-02T07:53:22;101872.28;;;20.60;65.32
72157;BME280;60035;52.122;5.406;2022-08-02T07:56:09;101873.44;;;20.70;64.93
72157;BME280;60035;52.122;5.406;2022-08-02T07:58:35;101879.81;;;20.80;65.18
72157;BME280;60035;52.122;5.406;2022-08-02T08:01:02;101866.09;;;20.93;65.07
72157;BME280;60035;52.122;5.406;2022-08-02T08:03:28;101867.09;;;21.06;64.86
72157;BME280;60035;52.122;5.406;2022-08-02T08:05:55;101863.78;;;21.19;64.93
72157;BME280;60035;52.122;5.406;2022-08-02T08:08:21;101871.63;;;21.33;64.60
72157;BME280;60035;52.122;5.406;2022-08-02T08:10:48;101866.97;;;21.38;64.75
72157;BME280;60035;52.122;5.406;2022-08-02T08:13:15;101864.22;;;21.56;64.35
72157;BME280;60035;52.122;5.406;2022-08-02T08:15:42;101862.66;;;21.68;64.36
72157;BME280;60035;52.122;5.406;2022-08-02T08:18:18;101863.88;;;21.91;64.02
72157;BME280;60035;52.122;5.406;2022-08-02T08:20:44;101865.16;;;22.12;63.66
72157;BME280;60035;52.122;5.406;2022-08-02T08:23:11;101855.63;;;22.26;62.81
72157;BME280;60035;52.122;5.406;2022-08-02T08:25:37;101865.84;;;22.29;63.00
72157;BME280;60035;52.122;5.406;2022-08-02T08:28:07;101866.16;;;22.24;62.97
72157;BME280;60035;52.122;5.406;2022-08-02T08:30:33;101863.06;;;22.32;63.00
72157;BME280;60035;52.122;5.406;2022-08-02T08:33:00;101859.41;;;22.49;62.50
72157;BME280;60035;52.122;5.406;2022-08-02T08:35:26;101861.72;;;22.54;61.52
72157;BME280;60035;52.122;5.406;2022-08-02T08:37:53;101851.50;;;22.63;61.31
72157;BME280;60035;52.122;5.406;2022-08-02T08:40:20;101855.50;;;22.69;60.59
72157;BME280;60035;52.122;5.406;2022-08-02T08:42:46;101855.41;;;22.71;59.94
72157;BME280;60035;52.122;5.406;2022-08-02T08:45:13;101862.09;;;22.75;59.48
72157;BME280;60035;52.122;5.406;2022-08-02T08:47:40;101854.88;;;22.66;59.49
72157;BME280;60035;52.122;5.406;2022-08-02T08:50:10;101857.97;;;22.58;60.04
72157;BME280;60035;52.122;5.406;2022-08-02T08:52:53;101855.78;;;22.65;59.48
72157;BME280;60035;52.122;5.406;2022-08-02T08:55:22;101852.47;;;22.75;59.28
72157;BME280;60035;52.122;5.406;2022-08-02T08:57:49;101853.38;;;22.89;59.03
72157;BME280;60035;52.122;5.406;2022-08-02T09:00:16;101851.28;;;22.81;59.48
72157;BME280;60035;52.122;5.406;2022-08-02T09:02:43;101856.59;;;22.92;59.61
72157;BME280;60035;52.122;5.406;2022-08-02T09:05:11;101863.13;;;23.00;58.89
72157;BME280;60035;52.122;5.406;2022-08-02T09:07:38;101858.44;;;23.05;59.38
72157;BME280;60035;52.122;5.406;2022-08-02T09:13:16;101864.97;;;23.25;58.06
72157;BME280;60035;52.122;5.406;2022-08-02T09:16:04;101859.63;;;23.39;57.81
72157;BME280;60035;52.122;5.406;2022-08-02T09:18:41;101863.50;;;23.46;57.52
72157;BME280;60035;52.122;5.406;2022-08-02T09:21:10;101869.25;;;23.52;57.96
72157;BME280;60035;52.122;5.406;2022-08-02T09:23:38;101858.97;;;23.61;57.27
72157;BME280;60035;52.122;5.406;2022-08-02T09:26:12;101854.69;;;23.73;56.83
72157;BME280;60035;52.122;5.406;2022-08-02T09:28:41;101863.25;;;23.88;56.47
72157;BME280;60035;52.122;5.406;2022-08-02T09:31:12;101852.19;;;23.98;56.60
72157;BME280;60035;52.122;5.406;2022-08-02T09:33:42;101857.13;;;24.26;56.01
72157;BME280;60035;52.122;5.406;2022-08-02T09:36:11;101852.34;;;24.44;56.56
72157;BME280;60035;52.122;5.406;2022-08-02T09:38:39;101854.25;;;24.67;55.88
72157;BME280;60035;52.122;5.406;2022-08-02T09:41:19;101842.34;;;24.63;56.12
72157;BME280;60035;52.122;5.406;2022-08-02T09:43:46;101857.16;;;24.62;55.53
72157;BME280;60035;52.122;5.406;2022-08-02T09:46:33;101860.25;;;24.80;56.04
72157;BME280;60035;52.122;5.406;2022-08-02T09:49:03;101866.38;;;24.92;54.48
72157;BME280;60035;52.122;5.406;2022-08-02T09:51:39;101862.81;;;25.04;55.14
72157;BME280;60035;52.122;5.406;2022-08-02T09:54:08;101866.41;;;25.39;54.03
72157;BME280;60035;52.122;5.406;2022-08-02T09:56:40;101853.50;;;25.58;52.95
72157;BME280;60035;52.122;5.406;2022-08-02T09:59:08;101847.56;;;25.68;53.42
72157;BME280;60035;52.122;5.406;2022-08-02T10:01:36;101847.81;;;25.76;53.40
72157;BME280;60035;52.122;5.406;2022-08-02T10:04:06;101861.50;;;25.91;52.85
72157;BME280;60035;52.122;5.406;2022-08-02T10:06:33;101866.16;;;25.87;53.24
72157;BME280;60035;52.122;5.406;2022-08-02T10:09:01;101855.88;;;26.18;51.56
72157;BME280;60035;52.122;5.406;2022-08-02T10:11:28;101858.81;;;26.36;50.90
72157;BME280;60035;52.122;5.406;2022-08-02T10:13:54;101850.47;;;26.31;50.53
72157;BME280;60035;52.122;5.406;2022-08-02T10:16:22;101851.53;;;26.28;51.88
72157;BME280;60035;52.122;5.406;2022-08-02T10:18:53;101854.63;;;26.34;51.18
72157;BME280;60035;52.122;5.406;2022-08-02T10:21:25;101863.72;;;26.30;51.13
72157;BME280;60035;52.122;5.406;2022-08-02T10:24:04;101866.84;;;26.01;51.58
72157;BME280;60035;52.122;5.406;2022-08-02T10:26:32;101857.72;;;26.06;51.70
72157;BME280;60035;52.122;5.406;2022-08-02T10:28:59;101856.72;;;26.07;52.14
72157;BME280;60035;52.122;5.406;2022-08-02T10:31:52;101851.47;;;26.19;52.48
72157;BME280;60035;52.122;5.406;2022-08-02T10:34:22;101844.66;;;26.27;52.53
72157;BME280;60035;52.122;5.406;2022-08-02T10:37:00;101841.25;;;26.69;50.48
72157;BME280;60035;52.122;5.406;2022-08-02T10:39:37;101841.78;;;27.05;50.28
72157;BME280;60035;52.122;5.406;2022-08-02T10:42:04;101842.56;;;27.17;48.58
72157;BME280;60035;52.122;5.406;2022-08-02T10:44:32;101839.84;;;26.98;49.69
72157;BME280;60035;52.122;5.406;2022-08-02T10:47:24;101839.47;;;27.12;49.07
72157;BME280;60035;52.122;5.406;2022-08-02T10:49:54;101834.63;;;27.07;48.82
72157;BME280;60035;52.122;5.406;2022-08-02T10:52:23;101838.34;;;27.05;48.00
72157;BME280;60035;52.122;5.406;2022-08-02T10:57:28;101838.50;;;27.13;48.30
72157;BME280;60035;52.122;5.406;2022-08-02T11:00:13;101822.97;;;27.31;47.57
72157;BME280;60035;52.122;5.406;2022-08-02T11:02:50;101826.88;;;27.37;46.00
72157;BME280;60035;52.122;5.406;2022-08-02T11:05:30;101834.00;;;27.46;46.49
72157;BME280;60035;52.122;5.406;2022-08-02T11:08:19;101830.28;;;27.49;46.24
72157;BME280;60035;52.122;5.406;2022-08-02T11:10:46;101829.91;;;27.53;45.64
72157;BME280;60035;52.122;5.406;2022-08-02T11:13:14;101827.31;;;27.73;44.53
72157;BME280;60035;52.122;5.406;2022-08-02T11:16:02;101815.88;;;27.93;44.80
72157;BME280;60035;52.122;5.406;2022-08-02T11:21:26;101813.97;;;28.15;44.37
72157;BME280;60035;52.122;5.406;2022-08-02T11:24:27;101807.75;;;28.16;43.96
72157;BME280;60035;52.122;5.406;2022-08-02T11:26:55;101818.72;;;28.41;41.83
72157;BME280;60035;52.122;5.406;2022-08-02T11:29:31;101833.25;;;28.45;41.46
72157;BME280;60035;52.122;5.406;2022-08-02T11:32:07;101828.81;;;28.46;40.06
72157;BME280;60035;52.122;5.406;2022-08-02T11:34:34;101824.28;;;28.67;40.38
72157;BME280;60035;52.122;5.406;2022-08-02T11:37:04;101817.00;;;28.89;39.99
72157;BME280;60035;52.122;5.406;2022-08-02T11:39:30;101818.13;;;28.96;40.45
72157;BME280;60035;52.122;5.406;2022-08-02T11:41:58;101823.13;;;28.60;38.62
72157;BME280;60035;52.122;5.406;2022-08-02T11:44:27;101823.56;;;28.75;40.11
72157;BME280;60035;52.122;5.406;2022-08-02T11:46:59;101821.72;;;28.95;39.01
72157;BME280;60035;52.122;5.406;2022-08-02T11:49:27;101806.56;;;28.97;38.62
72157;BME280;60035;52.122;5.406;2022-08-02T11:52:02;101820.22;;;29.40;39.44
72157;BME280;60035;52.122;5.406;2022-08-02T11:54:37;101820.34;;;29.38;39.32
72157;BME280;60035;52.122;5.406;2022-08-02T11:57:18;101804.72;;;29.55;38.69
72157;BME280;60035;52.122;5.406;2022-08-02T11:59:50;101806.22;;;29.85;37.87
72157;BME280;60035;52.122;5.406;2022-08-02T12:02:19;101800.13;;;30.03;37.21
72157;BME280;60035;52.122;5.406;2022-08-02T12:04:57;101801.91;;;29.84;37.29
72157;BME280;60035;52.122;5.406;2022-08-02T12:07:26;101801.66;;;30.05;36.57
72157;BME280;60035;52.122;5.406;2022-08-02T12:10:08;101806.50;;;30.10;35.50
72157;BME280;60035;52.122;5.406;2022-08-02T12:12:54;101796.63;;;29.84;36.08
72157;BME280;60035;52.122;5.406;2022-08-02T12:15:49;101806.63;;;29.81;36.47
72157;BME280;60035;52.122;5.406;2022-08-02T12:18:17;101800.84;;;29.77;36.73
72157;BME280;60035;52.122;5.406;2022-08-02T12:21:19;101797.81;;;30.00;35.17
72157;BME280;60035;52.122;5.406;2022-08-02T12:23:45;101797.88;;;30.26;36.73
72157;BME280;60035;52.122;5.406;2022-08-02T12:26:27;101806.19;;;30.49;35.41
72157;BME280;60035;52.122;5.406;2022-08-02T12:28:55;101806.22;;;29.85;35.61
72157;BME280;60035;52.122;5.406;2022-08-02T12:31:40;101806.56;;;29.72;36.38
72157;BME280;60035;52.122;5.406;2022-08-02T12:34:23;101797.41;;;29.95;36.46
72157;BME280;60035;52.122;5.406;2022-08-02T12:37:05;101800.22;;;29.83;35.32
72157;BME280;60035;52.122;5.406;2022-08-02T12:39:40;101811.75;;;29.36;36.43
72157;BME280;60035;52.122;5.406;2022-08-02T12:42:09;101803.84;;;29.36;36.33
72157;BME280;60035;52.122;5.406;2022-08-02T12:44:43;101802.50;;;29.13;36.99
72157;BME280;60035;52.122;5.406;2022-08-02T12:47:14;101799.13;;;29.40;36.89
72157;BME280;60035;52.122;5.406;2022-08-02T12:49:41;101803.91;;;29.72;35.55
72157;BME280;60035;52.122;5.406;2022-08-02T12:52:21;101801.22;;;30.10;35.48
72157;BME280;60035;52.122;5.406;2022-08-02T12:54:48;101801.03;;;30.30;34.81
72157;BME280;60035;52.122;5.406;2022-08-02T12:57:17;101790.53;;;30.56;33.24
72157;BME280;60035;52.122;5.406;2022-08-02T12:59:52;101792.22;;;30.21;34.78
72157;BME280;60035;52.122;5.406;2022-08-02T13:02:18;101799.50;;;30.45;33.57
72157;BME280;60035;52.122;5.406;2022-08-02T13:04:46;101791.66;;;29.99;34.26
72157;BME280;60035;52.122;5.406;2022-08-02T13:07:16;101795.63;;;30.31;34.46
72157;BME280;60035;52.122;5.406;2022-08-02T13:09:42;101806.88;;;30.78;33.80
72157;BME280;60035;52.122;5.406;2022-08-02T13:12:13;101797.63;;;30.37;33.67
72157;BME280;60035;52.122;5.406;2022-08-02T13:14:41;101798.69;;;30.45;33.85
72157;BME280;60035;52.122;5.406;2022-08-02T13:17:09;101794.81;;;30.75;33.45
72157;BME280;60035;52.122;5.406;2022-08-02T13:19:37;101795.88;;;31.17;33.23
72157;BME280;60035;52.122;5.406;2022-08-02T13:22:04;101786.97;;;31.26;33.34
72157;BME280;60035;52.122;5.406;2022-08-02T13:24:31;101780.91;;;31.85;31.86
72157;BME280;60035;52.122;5.406;2022-08-02T13:27:18;101775.94;;;31.98;31.40
72157;BME280;60035;52.122;5.406;2022-08-02T13:29:46;101776.81;;;32.23;31.45
72157;BME280;60035;52.122;5.406;2022-08-02T13:32:14;101765.69;;;32.12;30.66
72157;BME280;60035;52.122;5.406;2022-08-02T13:34:41;101759.91;;;32.33;30.35
72157;BME280;60035;52.122;5.406;2022-08-02T13:37:07;101766.03;;;32.25;29.99